»·PEaware :: SWA400 KLAS-KLAX

SWA400 :: KLAS-KLAX

FLIGHT INFORMATION

Flight Status: Arrived
Operator:
Southwest Airlines
More flights by this operator :: More flights under this callsign
Pilot: Paul P. (20696)
Aircraft: BOEING 737-800
(B738)
More flights by this aircraft type
Origin: KLAS McCarran Intl
United States
Destination: KLAX Los Angeles Intl
United States
More flights between these airports :: More routes between these airports
Route: BOACH8 RIKII SHTNR ANJLL4
File this flight plan on PilotEdge
Remarks: RMK / SIMBRIEF
Altitude:
(Current/Filed)
30,000ft
Speed:
(Current/Filed)
442kts
Departed: 11-Jan-21 11:55 AM
Arrived: 11-Jan-21 12:36 PM
Distance/Time
Traveled:
205nm/0:41
Distance/Time
To Go:
Arrived

Flight Plot

Page will automatically refresh every two minutes.

Flight plan parsing failed; only flown route is shown


Map Options




Map Legend


Flown Route
Filed Route
Departure Airport
Arrival Airport
Navaid (VOR, NDB)
Fix

Horizontal Profiles

Position Reports

Time Latitude Longitude Heading Altitude Ground
Speed
11-Jan-21 11:18 36.083230 -115.153618 142 2188ft 0kts
11-Jan-21 11:19 36.083194 -115.153579 141 2188ft 0kts
11-Jan-21 11:20 36.083194 -115.153579 141 2188ft 0kts
11-Jan-21 11:21 36.083194 -115.153579 141 2188ft 0kts
11-Jan-21 11:22 36.083194 -115.153579 141 2188ft 0kts
11-Jan-21 11:23 36.083194 -115.153579 141 2188ft 0kts
11-Jan-21 11:24 36.083194 -115.153579 141 2188ft 0kts
11-Jan-21 11:24 36.083194 -115.153579 141 2188ft 0kts
11-Jan-21 11:26 36.083194 -115.153579 141 2188ft 0kts
11-Jan-21 11:26 36.083194 -115.153579 141 2188ft 0kts
11-Jan-21 11:27 36.083194 -115.153579 141 2188ft 0kts
11-Jan-21 11:29 36.083194 -115.153579 141 2188ft 0kts
11-Jan-21 11:29 36.083194 -115.153579 141 2188ft 0kts
11-Jan-21 11:30 36.083194 -115.153579 141 2188ft 0kts
11-Jan-21 11:31 36.083194 -115.153579 141 2188ft 0kts
11-Jan-21 11:32 36.083194 -115.153579 141 2188ft 0kts
11-Jan-21 11:33 36.083194 -115.153579 141 2188ft 0kts
11-Jan-21 11:34 36.083194 -115.153579 141 2188ft 0kts
11-Jan-21 11:35 36.083194 -115.153579 141 2188ft 0kts
11-Jan-21 11:36 36.083194 -115.153579 141 2188ft 0kts
11-Jan-21 11:37 36.083194 -115.153579 141 2188ft 0kts
11-Jan-21 11:38 36.083194 -115.153580 141 2188ft 0kts
11-Jan-21 11:39 36.083523 -115.153899 142 2188ft 2kts
11-Jan-21 11:40 36.083978 -115.153852 245 2188ft 1kts
11-Jan-21 11:41 36.083426 -115.155283 244 2188ft 0kts
11-Jan-21 11:42 36.083426 -115.155283 244 2188ft 0kts
11-Jan-21 11:43 36.083426 -115.155283 244 2188ft 0kts
11-Jan-21 11:44 36.081894 -115.155137 155 2188ft 10kts
11-Jan-21 11:45 36.079359 -115.153655 155 2188ft 10kts
11-Jan-21 11:46 36.077999 -115.150200 95 2188ft 14kts
11-Jan-21 11:47 36.077606 -115.144103 94 2188ft 18kts
11-Jan-21 11:48 36.077569 -115.138531 90 2188ft 19kts
11-Jan-21 11:49 36.077577 -115.132029 90 2188ft 18kts
11-Jan-21 11:50 36.077586 -115.126431 90 2188ft 16kts
11-Jan-21 11:51 36.077585 -115.121709 95 2188ft 8kts
11-Jan-21 11:52 36.077456 -115.121387 143 2188ft 0kts
11-Jan-21 11:53 36.077351 -115.121320 158 2188ft 4kts
11-Jan-21 11:54 36.076428 -115.138077 269 2189ft 158kts
11-Jan-21 11:55 36.077094 -115.199080 269 4312ft 207kts
11-Jan-21 11:56 36.050952 -115.265058 206 7285ft 245kts
11-Jan-21 11:57 35.978063 -115.297911 196 9930ft 295kts
11-Jan-21 11:58 35.886692 -115.311722 185 11753ft 362kts
11-Jan-21 11:59 35.784087 -115.306787 173 14804ft 379kts
11-Jan-21 12:00 35.676962 -115.295096 177 17684ft 396kts
11-Jan-21 12:01 35.564051 -115.299095 183 20158ft 416kts
11-Jan-21 12:02 35.453233 -115.346897 209 22370ft 433kts
11-Jan-21 12:03 35.346223 -115.419441 212 24379ft 449kts
11-Jan-21 12:04 35.236238 -115.497962 213 26270ft 463kts
11-Jan-21 12:05 35.129031 -115.587533 225 27957ft 472kts
11-Jan-21 12:06 35.032995 -115.698971 229 29554ft 481kts
11-Jan-21 12:07 34.938551 -115.816872 230 30365ft 489kts
11-Jan-21 12:08 34.843875 -115.936607 231 30369ft 486kts
11-Jan-21 12:09 34.750013 -116.055452 231 30378ft 484kts
11-Jan-21 12:10 34.657868 -116.172386 231 30385ft 477kts
11-Jan-21 12:11 34.565553 -116.289587 231 30384ft 479kts
11-Jan-21 12:12 34.475630 -116.403343 232 28919ft 455kts
11-Jan-21 12:13 34.404775 -116.521778 245 26997ft 420kts
11-Jan-21 12:14 34.348825 -116.645944 248 25002ft 419kts
11-Jan-21 12:15 34.298372 -116.767494 248 23346ft 389kts
11-Jan-21 12:16 34.252014 -116.882154 249 21590ft 371kts
11-Jan-21 12:17 34.208340 -116.998756 255 19723ft 374kts
11-Jan-21 12:18 34.175654 -117.114879 256 17917ft 358kts
11-Jan-21 12:19 34.144025 -117.230016 256 16152ft 358kts
11-Jan-21 12:20 34.113351 -117.341258 256 14447ft 340kts
11-Jan-21 12:21 34.085095 -117.450590 257 12480ft 332kts
11-Jan-21 12:22 34.059246 -117.553153 256 11153ft 305kts
11-Jan-21 12:23 34.034749 -117.648988 255 10099ft 281kts
11-Jan-21 12:24 34.017772 -117.739093 265 9453ft 272kts
11-Jan-21 12:25 34.009202 -117.830666 264 8200ft 273kts
11-Jan-21 12:26 34.000355 -117.921033 263 6956ft 265kts
11-Jan-21 12:27 33.991132 -118.003579 263 5783ft 233kts
11-Jan-21 12:28 33.984658 -118.076974 263 4552ft 209kts
11-Jan-21 12:29 33.978509 -118.139927 263 4007ft 180kts
11-Jan-21 12:30 33.972563 -118.199737 263 3488ft 177kts
11-Jan-21 12:31 33.966662 -118.258464 263 2533ft 168kts
11-Jan-21 12:32 33.961379 -118.310780 263 1647ft 153kts
11-Jan-21 12:33 33.956156 -118.361210 264 843ft 147kts
11-Jan-21 12:34 33.951306 -118.409855 262 132ft 134kts
11-Jan-21 12:35 33.949080 -118.425954 238 121ft 18kts
11-Jan-21 12:36 33.948485 -118.426802 226 119ft 5kts
11-Jan-21 12:37 33.946408 -118.426581 82 116ft 12kts
11-Jan-21 12:38 33.946964 -118.421123 83 123ft 16kts
11-Jan-21 12:39 33.947527 -118.415651 83 126ft 15kts
11-Jan-21 12:40 33.948212 -118.410280 83 129ft 20kts
11-Jan-21 12:41 33.948844 -118.404222 81 126ft 13kts
11-Jan-21 12:42 33.947879 -118.401730 143 123ft 1kts
11-Jan-21 12:43 33.947856 -118.401709 143 123ft 0kts

Navigation Log

Ident Type
Flight plan parsing failed, navigation log unavailable